Time;durP1;ratioP1;P1;durP2;ratioP2;P2;SDS_P1;SDS_P2;PMS_P1;PMS_P2;Temp;Humidity;BMP_temperature;BMP_pressure;BME280_temperature;BME280_humidity;BME280_pressure;Samples;Min_cycle;Max_cycle;Signal;HPM_P1;HPM_P2
2023/04/19 00:01:25;;;;;;;8.73;5.35;;;8.80;99.90;;;;;;5066588;28;20045;-55
2023/04/19 00:03:50;;;;;;;10.55;5.80;;;8.80;99.90;;;;;;5069170;28;20044;-57
2023/04/19 00:06:16;;;;;;;9.13;5.50;;;7.90;99.90;;;;;;5069717;28;20406;-59
2023/04/19 00:08:42;;;;;;;9.45;5.30;;;7.90;99.90;;;;;;5066254;28;20068;-58
2023/04/19 00:11:09;;;;;;;8.73;5.30;;;8.50;99.90;;;;;;5058596;28;20047;-58
2023/04/19 00:13:35;;;;;;;10.15;5.65;;;8.60;99.90;;;;;;5064569;28;20036;-59
2023/04/19 00:16:01;;;;;;;9.80;5.63;;;8.40;99.90;;;;;;5069142;28;20554;-58
2023/04/19 00:18:27;;;;;;;9.65;5.63;;;8.70;99.90;;;;;;5051710;28;20044;-59
2023/04/19 00:20:53;;;;;;;11.20;6.15;;;8.70;99.90;;;;;;5060182;28;20032;-58
2023/04/19 00:23:18;;;;;;;9.45;5.50;;;8.40;99.90;;;;;;5069774;28;20112;-59
2023/04/19 00:25:48;;;;;;;11.20;5.65;;;8.80;99.90;;;;;;5067447;28;20135;-58
2023/04/19 00:28:14;;;;;;;9.32;5.63;;;8.30;99.90;;;;;;5069748;28;20055;-58
2023/04/19 00:30:40;;;;;;;9.15;4.97;;;8.20;99.90;;;;;;5069209;28;20025;-59
2023/04/19 00:33:11;;;;;;;8.75;5.45;;;8.60;99.90;;;;;;5069442;28;20433;-57
2023/04/19 00:35:38;;;;;;;8.82;5.80;;;7.90;99.90;;;;;;5067742;28;20033;-57
2023/04/19 00:38:04;;;;;;;9.02;5.75;;;8.20;99.90;;;;;;5069438;28;20044;-58
2023/04/19 00:40:31;;;;;;;9.90;5.47;;;8.10;99.90;;;;;;5069531;28;20120;-58
2023/04/19 00:42:56;;;;;;;10.30;5.60;;;8.40;99.90;;;;;;5065363;28;20099;-59
2023/04/19 00:45:22;;;;;;;9.63;5.32;;;8.40;99.90;;;;;;5069205;28;20402;-59
2023/04/19 00:47:47;;;;;;;8.60;5.72;;;7.60;99.90;;;;;;5065304;28;20548;-59
2023/04/19 00:50:13;;;;;;;9.10;5.68;;;7.60;99.90;;;;;;5068856;28;20830;-59
2023/04/19 00:52:39;;;;;;;10.20;5.75;;;8.30;99.90;;;;;;5067330;28;20048;-57
2023/04/19 00:55:06;;;;;;;8.68;5.40;;;8.10;99.90;;;;;;5067738;28;20044;-58
2023/04/19 00:57:32;;;;;;;9.98;5.57;;;8.00;99.90;;;;;;5068921;28;20043;-57
2023/04/19 00:59:57;;;;;;;10.77;5.88;;;8.10;99.90;;;;;;5069077;28;20037;-57
2023/04/19 01:02:24;;;;;;;9.43;5.85;;;;;;;;;;5069148;28;20032;-58
2023/04/19 01:04:50;;;;;;;10.82;6.50;;;7.80;99.90;;;;;;5066916;28;20121;-59
2023/04/19 01:07:16;;;;;;;10.07;5.97;;;7.80;99.90;;;;;;5069399;28;20044;-58
2023/04/19 01:09:43;;;;;;;9.68;5.95;;;7.60;99.90;;;;;;5068866;28;20040;-59
2023/04/19 01:12:09;;;;;;;9.40;5.97;;;7.90;99.90;;;;;;5067570;28;20050;-57
2023/04/19 01:14:35;;;;;;;10.60;6.20;;;7.60;99.90;;;;;;5067166;28;20115;-57
2023/04/19 01:17:00;;;;;;;10.10;6.03;;;8.40;99.90;;;;;;5051027;28;20452;-59
2023/04/19 01:19:26;;;;;;;11.60;5.70;;;7.50;99.90;;;;;;5067657;28;20405;-58
2023/04/19 01:21:51;;;;;;;12.40;6.40;;;8.00;99.90;;;;;;5064748;28;20044;-58
2023/04/19 01:24:17;;;;;;;10.70;5.90;;;8.50;99.90;;;;;;5065167;28;20063;-59
2023/04/19 01:26:43;;;;;;;9.90;5.90;;;7.90;99.90;;;;;;5068638;28;20501;-59
2023/04/19 01:29:08;;;;;;;11.02;6.28;;;7.90;99.90;;;;;;5068852;28;20127;-57
2023/04/19 01:31:34;;;;;;;10.98;6.47;;;7.90;99.90;;;;;;5065182;28;20119;-56
2023/04/19 01:34:00;;;;;;;11.25;6.68;;;8.30;99.90;;;;;;5068512;28;20498;-57
2023/04/19 01:36:26;;;;;;;11.57;6.55;;;8.00;99.90;;;;;;5066129;28;20127;-58
2023/04/19 01:38:52;;;;;;;10.15;6.43;;;7.50;99.90;;;;;;5067490;28;20056;-58
2023/04/19 01:41:19;;;;;;;12.50;7.60;;;8.40;99.90;;;;;;5066721;28;20032;-59
2023/04/19 01:43:44;;;;;;;11.77;6.93;;;8.10;99.90;;;;;;5061372;28;20123;-57
2023/04/19 01:46:10;;;;;;;10.10;6.80;;;7.80;99.90;;;;;;5068166;28;20120;-58
2023/04/19 01:48:36;;;;;;;10.77;6.40;;;8.40;99.90;;;;;;5068378;28;20037;-57
2023/04/19 01:51:01;;;;;;;12.00;7.57;;;7.80;99.90;;;;;;5072322;28;20039;-57
2023/04/19 01:53:27;;;;;;;12.10;7.10;;;8.20;99.90;;;;;;5067333;28;20039;-58
2023/04/19 01:55:54;;;;;;;14.35;7.05;;;8.40;99.90;;;;;;5071744;28;20040;-57
2023/04/19 01:58:20;;;;;;;15.40;7.78;;;7.60;99.90;;;;;;5072267;28;20043;-58
2023/04/19 02:00:45;;;;;;;13.55;7.45;;;7.80;99.90;;;;;;5071733;28;20557;-57
2023/04/19 02:03:11;;;;;;;13.65;8.32;;;7.80;99.90;;;;;;5071744;28;20047;-57
2023/04/19 02:05:38;;;;;;;13.27;8.10;;;8.50;99.90;;;;;;5071225;28;20116;-58
2023/04/19 02:08:04;;;;;;;13.55;8.20;;;8.30;99.90;;;;;;5070417;28;20041;-57
2023/04/19 02:10:30;;;;;;;14.23;8.00;;;7.40;99.90;;;;;;5054117;28;20033;-58
2023/04/19 02:12:55;;;;;;;12.55;7.97;;;7.80;99.90;;;;;;5068349;28;20129;-59
2023/04/19 02:15:22;;;;;;;14.65;8.80;;;;;;;;;;5071721;28;20037;-56
2023/04/19 02:17:47;;;;;;;12.07;7.47;;;8.40;99.90;;;;;;5069851;28;20047;-58
2023/04/19 02:20:13;;;;;;;12.20;8.43;;;7.20;99.90;;;;;;5070902;28;20032;-59
2023/04/19 02:22:39;;;;;;;11.07;7.20;;;7.60;99.90;;;;;;5066592;28;20036;-58
2023/04/19 02:25:05;;;;;;;15.35;8.32;;;7.20;99.90;;;;;;5068593;28;20076;-57
2023/04/19 02:27:31;;;;;;;12.77;8.20;;;7.60;99.90;;;;;;5071402;28;20090;-59
2023/04/19 02:29:57;;;;;;;15.50;7.78;;;7.60;99.90;;;;;;5069839;28;20044;-57
2023/04/19 02:32:22;;;;;;;14.50;8.60;;;7.60;99.90;;;;;;5071634;28;20028;-58
2023/04/19 02:34:48;;;;;;;17.42;9.90;;;7.70;99.90;;;;;;5071294;28;20694;-58
2023/04/19 02:37:13;;;;;;;14.70;9.13;;;7.40;99.90;;;;;;5071583;28;20611;-58
2023/04/19 02:39:41;;;;;;;14.50;9.27;;;7.50;99.90;;;;;;5070879;28;20025;-58
2023/04/19 02:42:07;;;;;;;16.02;10.02;;;7.60;99.90;;;;;;5071335;28;20494;-58
2023/04/19 02:44:32;;;;;;;12.88;7.97;;;7.10;99.90;;;;;;5069685;28;20035;-57
2023/04/19 02:46:58;;;;;;;13.95;8.82;;;6.90;99.90;;;;;;5071212;28;20464;-56
2023/04/19 02:49:24;;;;;;;13.80;8.85;;;7.50;99.90;;;;;;5053126;28;20037;-57
2023/04/19 02:51:51;;;;;;;15.23;9.45;;;7.60;99.90;;;;;;5070794;28;20479;-58
2023/04/19 02:54:17;;;;;;;15.57;8.32;;;8.10;99.90;;;;;;5070929;28;20043;-58
2023/04/19 02:56:42;;;;;;;14.98;9.00;;;7.40;99.90;;;;;;5062011;28;20033;-57
2023/04/19 02:59:08;;;;;;;12.65;8.30;;;7.00;99.90;;;;;;5060822;28;20070;-58
2023/04/19 03:01:34;;;;;;;13.10;8.73;;;7.50;99.90;;;;;;5070292;28;20040;-58
2023/04/19 03:03:59;;;;;;;15.48;9.35;;;7.80;99.90;;;;;;5066913;28;20036;-55
2023/04/19 03:06:25;;;;;;;14.85;8.60;;;7.40;99.90;;;;;;5068604;28;20128;-56
2023/04/19 03:08:51;;;;;;;14.15;8.35;;;7.10;99.90;;;;;;5069839;28;20047;-58
2023/04/19 03:11:17;;;;;;;13.23;8.20;;;7.40;99.90;;;;;;5069435;28;20041;-58
2023/04/19 03:13:43;;;;;;;15.07;8.90;;;;;;;;;;5070381;28;20028;-58
2023/04/19 03:16:09;;;;;;;14.98;8.73;;;7.30;99.90;;;;;;5070752;28;20036;-56
2023/04/19 03:18:35;;;;;;;12.05;8.27;;;7.10;99.90;;;;;;5070633;28;20489;-56
2023/04/19 03:21:01;;;;;;;14.38;8.65;;;;;;;;;;5070374;28;20472;-55
2023/04/19 03:23:27;;;;;;;12.40;7.65;;;7.20;99.90;;;;;;5066238;28;20042;-57
2023/04/19 03:25:53;;;;;;;11.45;7.80;;;7.20;99.90;;;;;;5068611;28;20098;-57
2023/04/19 03:28:19;;;;;;;13.98;7.65;;;7.10;99.90;;;;;;5069311;28;20045;-58
2023/04/19 03:30:45;;;;;;;12.25;8.63;;;6.90;99.90;;;;;;5068873;28;20043;-57
2023/04/19 03:33:11;;;;;;;11.82;7.93;;;7.40;99.90;;;;;;5070581;28;20078;-57
2023/04/19 03:35:37;;;;;;;13.20;7.90;;;7.00;99.90;;;;;;5070192;28;20040;-56
2023/04/19 03:38:02;;;;;;;12.70;8.18;;;7.00;99.90;;;;;;5059258;28;20047;-58
2023/04/19 03:40:29;;;;;;;11.82;7.97;;;7.40;99.90;;;;;;5070036;28;20067;-59
2023/04/19 03:42:55;;;;;;;11.52;7.10;;;7.00;99.90;;;;;;5069719;28;20040;-56
2023/04/19 03:45:21;;;;;;;12.55;8.20;;;7.10;99.90;;;;;;5062747;28;20049;-58
2023/04/19 03:47:47;;;;;;;12.50;7.78;;;7.00;99.90;;;;;;5070249;28;20047;-55
2023/04/19 03:50:13;;;;;;;13.55;7.82;;;7.00;99.90;;;;;;5063034;28;20032;-57
2023/04/19 03:52:38;;;;;;;12.70;7.63;;;6.90;99.90;;;;;;5070300;28;20486;-54
2023/04/19 03:55:04;;;;;;;11.85;7.60;;;7.00;99.90;;;;;;5069571;28;20032;-57
2023/04/19 03:57:31;;;;;;;15.20;8.00;;;6.30;99.90;;;;;;5070196;28;20039;-58
2023/04/19 03:59:56;;;;;;;13.57;7.90;;;7.00;99.90;;;;;;5069574;28;20037;-57
2023/04/19 04:02:22;;;;;;;11.70;7.65;;;7.00;99.90;;;;;;5068336;28;20040;-58
2023/04/19 04:04:52;;;;;;;12.70;7.68;;;;;;;;;;5068499;28;20051;-57
2023/04/19 04:07:18;;;;;;;12.23;7.47;;;6.90;99.90;;;;;;5057733;28;20130;-56
2023/04/19 04:09:46;;;;;;;16.92;7.90;;;6.70;99.90;;;;;;5066272;28;20102;-57
2023/04/19 04:12:12;;;;;;;11.23;7.47;;;6.60;99.90;;;;;;5058853;28;20418;-57
2023/04/19 04:14:37;;;;;;;12.88;7.38;;;7.00;99.90;;;;;;5067963;28;20044;-56
2023/04/19 04:17:03;;;;;;;15.18;8.45;;;6.50;99.90;;;;;;5069454;28;20045;-57
2023/04/19 04:19:29;;;;;;;12.55;8.13;;;6.70;99.90;;;;;;5069822;28;20038;-58
2023/04/19 04:21:54;;;;;;;14.27;7.43;;;6.50;99.90;;;;;;5064614;28;20040;-57
2023/04/19 04:24:21;;;;;;;13.95;7.80;;;7.00;99.90;;;;;;5060192;28;20059;-57
2023/04/19 04:26:48;;;;;;;12.95;7.07;;;6.80;99.90;;;;;;5053842;28;20123;-53
2023/04/19 04:29:15;;;;;;;13.20;7.60;;;;;;;;;;5057999;28;20037;-57
2023/04/19 04:31:41;;;;;;;12.55;7.57;;;6.90;99.90;;;;;;5064798;28;20044;-57
2023/04/19 04:34:08;;;;;;;14.75;7.53;;;6.40;99.90;;;;;;5063615;28;20271;-56
2023/04/19 04:36:35;;;;;;;10.95;7.07;;;6.30;99.90;;;;;;5060243;28;20024;-57
2023/04/19 04:39:01;;;;;;;10.90;7.32;;;5.80;99.90;;;;;;5066669;28;20079;-56
2023/04/19 04:41:30;;;;;;;12.25;7.53;;;6.30;99.90;;;;;;5064672;28;20036;-56
2023/04/19 04:44:00;;;;;;;13.77;7.32;;;6.30;99.90;;;;;;5063201;28;20052;-55
2023/04/19 04:46:26;;;;;;;12.68;7.45;;;6.10;99.90;;;;;;5068322;28;20037;-56
2023/04/19 04:48:52;;;;;;;12.77;7.70;;;6.30;99.90;;;;;;5066638;28;20078;-57
2023/04/19 04:51:18;;;;;;;11.63;7.28;;;6.60;99.90;;;;;;5061166;28;20032;-53
2023/04/19 04:53:44;;;;;;;15.23;7.05;;;6.20;99.90;;;;;;5068774;28;20477;-58
2023/04/19 04:56:10;;;;;;;9.88;5.85;;;;;;;;;;5066539;28;20036;-57
2023/04/19 04:58:35;;;;;;;11.25;6.22;;;6.30;99.90;;;;;;5069532;28;20044;-56
2023/04/19 05:01:01;;;;;;;10.77;6.10;;;5.90;99.90;;;;;;5068927;28;20085;-57
2023/04/19 05:03:27;;;;;;;10.63;5.72;;;6.20;99.90;;;;;;5061094;28;20128;-54
2023/04/19 05:05:52;;;;;;;10.50;5.85;;;6.10;99.90;;;;;;5068487;28;20043;-57
2023/04/19 05:08:18;;;;;;;10.38;5.90;;;6.20;99.90;;;;;;5068834;28;20036;-57
2023/04/19 05:10:44;;;;;;;11.40;6.25;;;6.20;99.90;;;;;;5062165;28;20044;-56
2023/04/19 05:13:09;;;;;;;9.40;5.75;;;6.10;99.90;;;;;;5064356;28;20061;-56
2023/04/19 05:15:35;;;;;;;11.43;5.78;;;6.30;99.90;;;;;;5068780;28;20028;-57
2023/04/19 05:18:01;;;;;;;9.60;6.03;;;6.00;99.90;;;;;;5068971;28;20385;-56
2023/04/19 05:20:28;;;;;;;10.10;6.15;;;6.90;99.90;;;;;;5068837;28;20124;-57
2023/04/19 05:22:58;;;;;;;12.35;6.30;;;6.40;99.90;;;;;;5070900;28;20401;-55
2023/04/19 05:25:23;;;;;;;9.00;5.20;;;6.30;99.90;;;;;;5071774;28;20455;-57
2023/04/19 05:27:49;;;;;;;10.50;5.78;;;;;;;;;;5072880;28;20076;-55
2023/04/19 05:30:15;;;;;;;9.93;5.45;;;6.70;99.90;;;;;;5072816;28;20071;-56
2023/04/19 05:32:41;;;;;;;10.02;5.75;;;6.40;99.90;;;;;;5071389;28;20116;-56
2023/04/19 05:35:07;;;;;;;9.35;5.43;;;6.30;99.90;;;;;;5067292;28;20068;-56
2023/04/19 05:37:33;;;;;;;9.38;5.70;;;6.80;99.90;;;;;;5072763;28;20032;-56
2023/04/19 05:39:58;;;;;;;9.38;4.97;;;6.50;99.90;;;;;;5072728;28;20039;-55
2023/04/19 05:42:24;;;;;;;8.43;5.07;;;6.40;99.90;;;;;;5071743;28;20029;-58
2023/04/19 05:44:49;;;;;;;10.43;5.10;;;6.60;99.90;;;;;;5070610;28;20041;-57
2023/04/19 05:47:16;;;;;;;9.40;5.32;;;6.60;99.90;;;;;;5071802;28;20358;-57
2023/04/19 05:49:42;;;;;;;8.95;4.93;;;6.60;99.90;;;;;;5072472;28;20032;-57
2023/04/19 05:52:07;;;;;;;8.68;4.78;;;6.90;99.90;;;;;;5071884;28;20098;-58
2023/04/19 05:54:34;;;;;;;7.97;4.45;;;6.00;99.90;;;;;;5070357;28;20123;-58
2023/04/19 05:57:01;;;;;;;8.50;4.50;;;6.70;99.90;;;;;;5072036;28;20093;-58
2023/04/19 05:59:27;;;;;;;8.52;4.75;;;6.70;99.90;;;;;;5072333;28;20055;-58
2023/04/19 06:01:54;;;;;;;9.02;4.05;;;6.40;99.90;;;;;;5071737;28;20036;-57
2023/04/19 06:04:20;;;;;;;8.10;4.10;;;6.70;99.90;;;;;;5072214;28;20044;-58
2023/04/19 06:06:46;;;;;;;7.40;4.07;;;6.70;99.90;;;;;;5071933;28;20397;-57
2023/04/19 06:09:13;;;;;;;10.45;4.30;;;6.80;99.90;;;;;;5071818;28;20047;-58
2023/04/19 06:11:39;;;;;;;8.45;4.15;;;7.00;99.90;;;;;;5071955;28;20498;-56
2023/04/19 06:14:05;;;;;;;8.43;3.72;;;7.10;99.90;;;;;;5071651;28;20040;-58
2023/04/19 06:16:30;;;;;;;9.15;5.38;;;6.90;99.90;;;;;;5072183;28;20044;-58
2023/04/19 06:18:56;;;;;;;7.05;3.53;;;6.90;99.90;;;;;;5071454;28;20044;-57
2023/04/19 06:21:22;;;;;;;8.73;4.18;;;7.20;99.90;;;;;;5070509;28;20043;-58
2023/04/19 06:23:48;;;;;;;7.18;3.25;;;;;;;;;;5071582;28;20105;-58
2023/04/19 06:26:14;;;;;;;7.93;3.63;;;;;;;;;;5071612;28;20045;-57
2023/04/19 06:28:39;;;;;;;8.07;3.88;;;7.40;99.90;;;;;;5071820;28;20402;-58
2023/04/19 06:31:05;;;;;;;10.18;3.80;;;7.30;99.90;;;;;;5071280;28;20036;-57
2023/04/19 06:33:31;;;;;;;8.02;4.18;;;7.10;99.90;;;;;;5070994;28;20102;-56
2023/04/19 06:35:56;;;;;;;6.60;3.60;;;7.40;99.90;;;;;;5070735;28;20033;-55
2023/04/19 06:38:22;;;;;;;10.95;3.75;;;7.20;99.90;;;;;;5071887;28;20092;-56
2023/04/19 06:40:48;;;;;;;7.13;3.80;;;7.40;99.90;;;;;;5071444;28;20036;-56
2023/04/19 06:43:13;;;;;;;7.30;3.67;;;7.40;99.90;;;;;;5070883;28;20043;-58
2023/04/19 06:45:39;;;;;;;8.65;3.60;;;7.20;99.90;;;;;;5071413;28;20036;-57
2023/04/19 06:48:05;;;;;;;8.38;3.92;;;7.40;99.90;;;;;;5067138;28;20052;-57
2023/04/19 06:50:31;;;;;;;8.48;4.03;;;7.00;99.90;;;;;;5064990;28;20036;-57
2023/04/19 06:52:56;;;;;;;7.82;3.63;;;7.40;99.90;;;;;;5071090;28;20035;-58
2023/04/19 06:55:22;;;;;;;8.98;3.40;;;7.90;99.90;;;;;;5071332;28;20166;-58
2023/04/19 06:57:48;;;;;;;7.28;3.30;;;7.60;99.90;;;;;;5071276;28;20048;-58
2023/04/19 07:00:14;;;;;;;7.13;3.60;;;8.20;99.90;;;;;;5070673;28;20029;-57
2023/04/19 07:02:39;;;;;;;7.97;3.45;;;7.50;99.90;;;;;;5071090;28;20069;-56
2023/04/19 07:05:06;;;;;;;6.20;3.00;;;7.60;99.90;;;;;;5068378;28;20069;-57
2023/04/19 07:07:32;;;;;;;7.43;3.50;;;7.90;99.90;;;;;;5065008;28;20036;-58
2023/04/19 07:09:58;;;;;;;7.40;3.58;;;7.40;99.90;;;;;;5070532;28;20043;-57
2023/04/19 07:12:23;;;;;;;7.10;3.63;;;8.10;99.90;;;;;;5070794;28;20039;-57
2023/04/19 07:14:55;;;;;;;5.80;3.03;;;7.80;99.90;;;;;;5070731;28;20067;-56
2023/04/19 07:17:21;;;;;;;6.75;3.05;;;7.80;99.90;;;;;;5070202;28;20161;-58
2023/04/19 07:19:47;;;;;;;6.05;3.10;;;8.40;97.00;;;;;;5070662;28;20131;-57
2023/04/19 07:22:13;;;;;;;6.78;3.25;;;8.40;96.20;;;;;;5068816;28;20044;-58
2023/04/19 07:24:40;;;;;;;6.20;2.78;;;8.10;95.60;;;;;;5070530;28;20036;-56
2023/04/19 07:27:07;;;;;;;6.07;3.05;;;8.50;99.90;;;;;;5068845;28;20417;-57
2023/04/19 07:29:36;;;;;;;8.07;3.38;;;8.00;99.90;;;;;;5070563;28;20034;-57
2023/04/19 07:32:02;;;;;;;7.07;3.75;;;7.50;93.60;;;;;;5069647;28;20036;-58
2023/04/19 07:34:27;;;;;;;6.45;2.88;;;8.20;99.20;;;;;;5065865;28;20037;-58
2023/04/19 07:36:53;;;;;;;7.53;2.85;;;;;;;;;;5066915;28;20054;-56
2023/04/19 07:39:19;;;;;;;6.05;2.97;;;8.20;97.60;;;;;;5062222;28;20401;-58
2023/04/19 07:41:45;;;;;;;6.55;3.08;;;8.70;97.60;;;;;;5070350;28;20119;-58
2023/04/19 07:44:12;;;;;;;7.15;2.80;;;8.50;88.30;;;;;;5069516;28;20105;-57
2023/04/19 07:46:38;;;;;;;7.40;2.63;;;7.90;94.90;;;;;;5050893;28;20036;-57
2023/04/19 07:49:03;;;;;;;5.38;2.45;;;8.40;92.30;;;;;;5069780;28;20041;-58
2023/04/19 07:51:29;;;;;;;6.18;2.50;;;8.50;80.50;;;;;;5067893;28;20033;-56
2023/04/19 07:53:54;;;;;;;5.80;2.60;;;8.70;77.40;;;;;;5061098;28;20125;-57
2023/04/19 07:56:21;;;;;;;5.22;2.65;;;8.40;77.20;;;;;;5059889;28;20400;-56
2023/04/19 07:58:47;;;;;;;6.22;2.53;;;8.50;74.20;;;;;;5069909;28;20460;-58
2023/04/19 08:01:13;;;;;;;7.50;2.40;;;8.60;71.50;;;;;;5068822;28;20045;-57
2023/04/19 08:03:39;;;;;;;5.68;2.35;;;8.20;71.50;;;;;;5069758;28;20068;-58
2023/04/19 08:06:07;;;;;;;5.05;2.20;;;8.80;71.40;;;;;;5069356;28;20037;-57
2023/04/19 08:08:33;;;;;;;5.57;2.20;;;8.30;70.40;;;;;;5069738;28;20072;-57
2023/04/19 08:11:01;;;;;;;5.47;2.28;;;8.60;83.30;;;;;;5069180;28;20055;-58
2023/04/19 08:13:27;;;;;;;5.95;2.30;;;;;;;;;;5068268;28;20050;-55
2023/04/19 08:15:52;;;;;;;5.30;2.28;;;8.40;67.00;;;;;;5059778;28;20040;-58
2023/04/19 08:18:18;;;;;;;6.05;2.13;;;8.50;65.00;;;;;;5069331;28;20089;-58
2023/04/19 08:20:45;;;;;;;5.20;2.25;;;8.70;68.50;;;;;;5069400;28;20036;-58
2023/04/19 08:23:11;;;;;;;7.57;2.50;;;8.60;59.00;;;;;;5053897;28;20459;-57
2023/04/19 08:25:37;;;;;;;6.10;2.22;;;8.90;55.90;;;;;;5069212;28;20079;-57
2023/04/19 08:28:03;;;;;;;5.75;2.67;;;9.00;54.00;;;;;;5068478;28;20128;-58
2023/04/19 08:30:29;;;;;;;5.20;2.20;;;8.80;52.90;;;;;;5063365;28;20033;-56
2023/04/19 08:32:55;;;;;;;5.45;2.40;;;8.50;49.60;;;;;;5068363;28;20051;-56
2023/04/19 08:35:21;;;;;;;6.07;2.10;;;8.90;49.90;;;;;;5060563;28;20064;-58
2023/04/19 08:37:48;;;;;;;5.50;2.00;;;8.70;47.20;;;;;;5069558;28;20067;-57
2023/04/19 08:40:15;;;;;;;6.32;2.47;;;8.60;43.80;;;;;;5068852;28;20048;-58
2023/04/19 08:42:44;;;;;;;4.72;2.03;;;8.90;41.30;;;;;;5068247;28;20037;-58
2023/04/19 08:45:12;;;;;;;5.13;2.13;;;8.90;39.90;;;;;;5082014;28;20048;-56
2023/04/19 08:47:38;;;;;;;4.78;1.90;;;9.40;37.50;;;;;;5068272;28;20490;-57
2023/04/19 08:50:06;;;;;;;5.15;2.25;;;8.80;32.90;;;;;;5068811;28;20030;-56
2023/04/19 08:52:33;;;;;;;7.88;2.58;;;9.70;39.70;;;;;;5051136;28;20501;-57
2023/04/19 08:55:07;;;;;;;4.70;2.15;;;9.80;28.40;;;;;;5068190;28;20125;-56
2023/04/19 08:57:33;;;;;;;6.15;2.47;;;9.10;35.00;;;;;;5068667;28;20040;-57
2023/04/19 09:00:00;;;;;;;5.40;2.47;;;9.70;27.40;;;;;;5068770;28;20059;-59
2023/04/19 09:02:27;;;;;;;5.18;2.40;;;9.20;32.90;;;;;;5067865;28;20037;-55
2023/04/19 09:04:52;;;;;;;6.40;2.25;;;9.70;27.90;;;;;;5067578;28;20055;-56
2023/04/19 09:07:26;;;;;;;5.43;2.15;;;;;;;;;;5067517;28;20055;-58
2023/04/19 09:10:06;;;;;;;6.32;2.10;;;9.80;25.70;;;;;;5061698;28;20392;-58
2023/04/19 09:12:33;;;;;;;5.00;2.10;;;9.20;25.40;;;;;;5061768;28;20055;-57
2023/04/19 09:15:00;;;;;;;4.40;1.85;;;;;;;;;;5067563;28;20047;-56
2023/04/19 09:17:25;;;;;;;7.63;2.40;;;9.30;17.40;;;;;;5060846;28;20051;-58
2023/04/19 09:19:51;;;;;;;5.40;2.15;;;9.70;14.80;;;;;;5069021;28;20040;-58
2023/04/19 09:22:17;;;;;;;6.70;3.08;;;10.20;16.60;;;;;;5066891;28;20045;-57
2023/04/19 09:24:43;;;;;;;4.63;2.03;;;10.10;16.40;;;;;;5064280;28;20117;-57
2023/04/19 09:27:10;;;;;;;4.82;1.80;;;10.10;27.70;;;;;;5066837;28;20044;-54
2023/04/19 09:29:37;;;;;;;4.40;1.90;;;10.10;10.70;;;;;;5067566;28;20040;-56
2023/04/19 09:32:02;;;;;;;4.20;1.95;;;10.10;15.80;;;;;;5068153;28;20517;-57
2023/04/19 09:34:29;;;;;;;4.57;1.90;;;10.90;12.50;;;;;;5060651;28;20112;-58
2023/04/19 09:36:55;;;;;;;5.68;2.10;;;10.00;14.40;;;;;;5065578;28;20055;-56
2023/04/19 09:39:31;;;;;;;5.68;2.17;;;10.60;8.40;;;;;;5067811;28;20085;-56
2023/04/19 09:41:57;;;;;;;5.65;2.10;;;10.20;13.00;;;;;;5068847;28;20039;-56
2023/04/19 09:44:23;;;;;;;6.43;2.33;;;10.10;9.80;;;;;;5062595;28;20487;-58
2023/04/19 09:46:51;;;;;;;5.68;2.17;;;11.10;11.40;;;;;;5067233;28;20040;-56
2023/04/19 09:49:25;;;;;;;5.93;1.88;;;10.40;8.60;;;;;;5065994;28;20115;-57
2023/04/19 09:51:55;;;;;;;5.87;1.90;;;10.60;9.50;;;;;;5066662;28;20040;-58
2023/04/19 09:54:29;;;;;;;4.40;1.92;;;10.70;4.50;;;;;;5059580;28;20049;-57
2023/04/19 09:56:54;;;;;;;6.22;2.33;;;11.20;1.00;;;;;;5068850;28;20169;-58
2023/04/19 09:59:20;;;;;;;5.13;1.90;;;11.50;1.20;;;;;;5067105;28;20049;-57
2023/04/19 10:01:53;;;;;;;4.70;1.85;;;11.50;4.00;;;;;;5068874;28;20416;-58
2023/04/19 10:04:23;;;;;;;5.38;1.80;;;11.70;1.00;;;;;;5067968;28;20075;-55
2023/04/19 10:06:53;;;;;;;5.63;2.15;;;11.10;1.00;;;;;;5068831;28;20040;-56
2023/04/19 10:09:20;;;;;;;5.20;2.00;;;10.90;1.00;;;;;;5069358;28;20102;-58
2023/04/19 10:11:51;;;;;;;5.82;2.50;;;12.00;1.00;;;;;;5071917;28;20032;-57
2023/04/19 10:14:23;;;;;;;6.22;2.15;;;11.80;6.00;;;;;;5069913;28;20429;-57
2023/04/19 10:16:50;;;;;;;6.32;2.13;;;11.70;1.00;;;;;;5066357;28;20163;-57
2023/04/19 10:19:18;;;;;;;7.05;2.20;;;11.60;1.00;;;;;;5070331;28;20051;-57
2023/04/19 10:21:47;;;;;;;5.93;2.55;;;11.20;2.60;;;;;;5072145;28;20040;-57
2023/04/19 10:24:14;;;;;;;8.07;2.75;;;11.20;1.00;;;;;;5071024;28;20036;-58
2023/04/19 10:27:02;;;;;;;7.32;2.40;;;11.90;1.80;;;;;;5070637;28;20170;-58
2023/04/19 10:29:53;;;;;;;8.23;2.67;;;12.00;1.00;;;;;;5069737;28;20103;-57
2023/04/19 10:32:18;;;;;;;5.88;2.67;;;12.40;10.70;;;;;;5069485;28;20040;-58
2023/04/19 10:34:45;;;;;;;5.97;2.78;;;12.50;5.40;;;;;;5065382;28;20106;-58
2023/04/19 10:37:12;;;;;;;8.57;3.05;;;12.30;5.30;;;;;;5068019;28;20043;-57
2023/04/19 10:39:40;;;;;;;6.05;2.65;;;12.50;4.10;;;;;;5069451;28;20037;-57
2023/04/19 10:42:06;;;;;;;5.97;2.63;;;12.30;3.10;;;;;;5071358;28;20062;-59
2023/04/19 10:44:31;;;;;;;5.93;2.38;;;12.40;3.20;;;;;;5071262;28;20081;-55
2023/04/19 10:47:00;;;;;;;7.93;2.28;;;12.50;1.70;;;;;;5071775;28;20040;-57
2023/04/19 10:49:30;;;;;;;6.65;2.45;;;13.00;7.80;;;;;;5069690;28;20044;-56
2023/04/19 10:51:57;;;;;;;6.35;2.40;;;12.50;4.50;;;;;;5073835;28;20045;-57
2023/04/19 10:54:32;;;;;;;6.85;2.78;;;13.10;5.20;;;;;;5052571;28;20045;-56
2023/04/19 10:57:05;;;;;;;5.85;1.70;;;12.50;9.20;;;;;;5071450;28;20119;-55
2023/04/19 10:59:42;;;;;;;5.38;2.40;;;12.20;1.20;;;;;;5064062;28;20032;-58
2023/04/19 11:02:31;;;;;;;5.50;1.90;;;12.80;1.10;;;;;;5059551;28;20064;-57
2023/04/19 11:04:59;;;;;;;6.25;2.08;;;12.30;8.50;;;;;;5070840;28;20039;-58
2023/04/19 11:07:25;;;;;;;5.55;2.13;;;13.00;1.90;;;;;;5069243;28;20367;-56
2023/04/19 11:09:51;;;;;;;7.82;2.30;;;12.80;1.00;;;;;;5069625;28;20060;-57
2023/04/19 11:12:18;;;;;;;5.22;2.40;;;13.00;1.00;;;;;;5064771;28;20047;-58
2023/04/19 11:14:45;;;;;;;6.38;2.10;;;13.70;1.00;;;;;;5069587;28;20087;-57
2023/04/19 11:17:26;;;;;;;5.15;1.70;;;12.90;1.00;;;;;;5070208;28;20498;-57
2023/04/19 11:19:51;;;;;;;4.05;1.50;;;13.30;1.00;;;;;;5064784;28;20044;-56
2023/04/19 11:22:17;;;;;;;4.63;1.90;;;13.60;1.00;;;;;;5068243;28;20033;-57
2023/04/19 11:24:47;;;;;;;6.70;1.95;;;13.10;1.00;;;;;;5070503;28;20037;-57
2023/04/19 11:27:12;;;;;;;4.43;1.60;;;13.70;1.00;;;;;;5069010;28;20103;-57
2023/04/19 11:29:38;;;;;;;6.75;1.60;;;13.10;1.00;;;;;;5070481;28;20037;-56
2023/04/19 11:32:04;;;;;;;4.60;1.90;;;14.00;1.00;;;;;;5070594;28;20037;-54
2023/04/19 11:34:36;;;;;;;5.00;1.77;;;13.40;1.00;;;;;;5070130;28;20398;-53
2023/04/19 11:37:01;;;;;;;5.32;1.98;;;13.20;1.00;;;;;;5070485;28;20116;-58
2023/04/19 11:39:27;;;;;;;5.47;1.65;;;13.30;1.00;;;;;;5069688;28;20766;-57
2023/04/19 11:41:53;;;;;;;5.40;1.92;;;13.80;1.00;;;;;;5069009;28;20072;-55
2023/04/19 11:44:19;;;;;;;5.28;2.00;;;13.30;1.00;;;;;;5063376;28;20036;-54
2023/04/19 11:46:59;;;;;;;8.00;2.35;;;13.80;1.00;;;;;;5052324;28;20068;-58
2023/04/19 11:49:32;;;;;;;6.05;2.08;;;13.30;1.00;;;;;;5059875;28;20047;-57
2023/04/19 11:51:59;;;;;;;4.47;1.83;;;14.40;1.00;;;;;;5065023;28;20036;-56
2023/04/19 11:54:25;;;;;;;6.35;1.95;;;13.90;1.00;;;;;;5069186;28;20051;-57
2023/04/19 11:57:03;;;;;;;4.70;1.70;;;14.40;1.00;;;;;;5068636;28;20047;-59
2023/04/19 11:59:32;;;;;;;4.15;1.60;;;13.80;1.00;;;;;;5069616;28;20263;-58
2023/04/19 12:02:11;;;;;;;4.30;1.52;;;14.10;1.00;;;;;;5068433;28;20048;-58
2023/04/19 12:04:38;;;;;;;3.80;1.67;;;14.90;1.00;;;;;;5062172;28;20094;-57
2023/04/19 12:07:04;;;;;;;4.90;1.98;;;15.10;1.00;;;;;;5069531;28;20028;-56
2023/04/19 12:09:34;;;;;;;5.38;1.58;;;14.20;1.00;;;;;;5069578;28;20048;-58
2023/04/19 12:12:01;;;;;;;4.68;1.55;;;15.20;1.00;;;;;;5068324;28;20044;-59
2023/04/19 12:14:26;;;;;;;6.45;2.72;;;14.60;1.00;;;;;;5069293;28;20120;-58
2023/04/19 12:17:10;;;;;;;6.90;2.03;;;15.00;1.00;;;;;;5069758;28;20112;-59
2023/04/19 12:19:46;;;;;;;5.65;1.80;;;14.80;1.00;;;;;;5056779;28;20067;-59
2023/04/19 12:22:16;;;;;;;5.28;2.00;;;15.40;1.00;;;;;;5066724;28;20279;-59
2023/04/19 12:24:42;;;;;;;6.72;2.08;;;16.50;1.00;;;;;;5069504;28;20060;-57
2023/04/19 12:27:08;;;;;;;4.57;1.95;;;19.00;1.00;;;;;;5069573;28;20045;-60
2023/04/19 12:29:34;;;;;;;6.55;2.60;;;21.20;1.00;;;;;;5069310;28;20044;-58
2023/04/19 12:32:01;;;;;;;5.93;2.10;;;22.90;1.00;;;;;;5067467;28;20128;-57
2023/04/19 12:34:27;;;;;;;6.70;2.28;;;24.90;1.00;;;;;;5049501;28;20036;-58
2023/04/19 12:36:53;;;;;;;6.60;2.17;;;26.90;1.00;;;;;;5069742;28;20039;-58
2023/04/19 12:39:18;;;;;;;7.38;2.58;;;28.00;1.00;;;;;;5068822;28;20156;-58
2023/04/19 12:41:44;;;;;;;7.65;2.63;;;28.60;1.00;;;;;;5069610;28;20123;-58
2023/04/19 12:44:10;;;;;;;8.25;3.75;;;29.80;1.00;;;;;;5068984;28;20167;-58
2023/04/19 12:46:35;;;;;;;6.45;2.78;;;31.50;1.00;;;;;;5068710;28;20394;-61
2023/04/19 12:49:01;;;;;;;8.48;2.80;;;31.60;1.00;;;;;;5064267;28;20048;-58
2023/04/19 12:51:26;;;;;;;5.95;2.63;;;32.40;1.00;;;;;;5066385;28;20397;-58
2023/04/19 12:53:53;;;;;;;7.72;2.80;;;32.90;1.00;;;;;;5063069;28;20521;-58
2023/04/19 12:56:19;;;;;;;7.50;2.80;;;33.90;1.00;;;;;;5067520;28;20120;-58